Time;durP1;ratioP1;P1;durP2;ratioP2;P2;SDS_P1;SDS_P2;PMS_P1;PMS_P2;Temp;Humidity;BMP_temperature;BMP_pressure;BME280_temperature;BME280_humidity;BME280_pressure;Samples;Min_cycle;Max_cycle;Signal;HPM_P1;HPM_P2
2023/07/06 00:02:16;;;;;;;5.97;3.20;;;;;12.20;96499.00;;;;8336581;28;20205;-71
2023/07/06 00:06:21;;;;;;;6.95;3.78;;;;;12.20;96495.00;;;;8303555;28;20233;-69
2023/07/06 00:10:27;;;;;;;4.05;3.28;;;;;12.30;96488.00;;;;8328592;28;20228;-69
2023/07/06 00:14:30;;;;;;;6.47;3.33;;;;;12.40;96490.00;;;;8333333;28;20458;-69
2023/07/06 00:18:39;;;;;;;5.97;3.85;;;;;12.40;96483.00;;;;8336103;28;20228;-69
2023/07/06 00:22:42;;;;;;;6.10;3.78;;;;;12.50;96474.00;;;;8319231;28;20197;-68
2023/07/06 00:26:49;;;;;;;3.40;3.10;;;;;12.30;96475.00;;;;8324192;28;20192;-68
2023/07/06 00:31:01;;;;;;;7.57;4.28;;;;;12.20;96477.00;;;;8326603;28;20207;-69
2023/07/06 00:35:10;;;;;;;9.48;3.72;;;;;12.20;96478.00;;;;8339519;28;20228;-69
2023/07/06 00:39:13;;;;;;;5.85;4.15;;;;;12.10;96491.00;;;;8326005;28;20221;-71
2023/07/06 00:43:18;;;;;;;7.50;3.80;;;;;12.10;96496.00;;;;8299908;28;20227;-69
2023/07/06 00:47:32;;;;;;;4.97;3.25;;;;;12.10;96492.00;;;;8320290;28;20199;-69
2023/07/06 00:51:40;;;;;;;4.65;3.53;;;;;12.10;96494.00;;;;8317692;28;20194;-69
2023/07/06 00:55:49;;;;;;;5.55;3.63;;;;;12.10;96496.00;;;;8345848;28;20203;-68
2023/07/06 01:00:04;;;;;;;5.72;3.70;;;;;12.30;96495.00;;;;8322334;28;20651;-68
2023/07/06 01:04:11;;;;;;;4.28;3.10;;;;;12.30;96500.00;;;;8258141;28;1696599;-69
2023/07/06 01:08:20;;;;;;;9.80;4.20;;;;;12.30;96495.00;;;;8302982;28;20816;-68
2023/07/06 01:12:24;;;;;;;6.68;4.00;;;;;12.30;96486.00;;;;8340547;28;20286;-70
2023/07/06 01:16:42;;;;;;;4.22;3.78;;;;;12.20;96485.00;;;;8335355;28;20208;-68
2023/07/06 01:20:53;;;;;;;7.85;4.20;;;;;12.20;96478.00;;;;8332618;28;20209;-70
2023/07/06 01:25:17;;;;;;;6.07;3.90;;;;;12.20;96488.00;;;;8333303;28;20201;-68
2023/07/06 01:29:40;;;;;;;4.88;3.60;;;;;12.30;96479.00;;;;8311079;28;20198;-68
2023/07/06 01:33:54;;;;;;;5.70;3.60;;;;;12.50;96478.00;;;;8335873;28;20285;-69
2023/07/06 01:38:01;;;;;;;5.97;3.35;;;;;12.60;96484.00;;;;8334640;28;20235;-68
2023/07/06 01:42:25;;;;;;;5.97;4.15;;;;;12.60;96479.00;;;;8318483;28;20660;-69
2023/07/06 01:46:31;;;;;;;6.00;3.65;;;;;12.60;96483.00;;;;8318719;28;20289;-68
2023/07/06 01:50:42;;;;;;;6.20;3.78;;;;;12.50;96489.00;;;;8330405;28;20208;-69
2023/07/06 01:54:50;;;;;;;6.68;3.78;;;;;12.40;96487.00;;;;8342288;28;20721;-68
2023/07/06 01:59:06;;;;;;;8.68;4.47;;;;;12.20;96476.00;;;;8333589;28;20726;-69
2023/07/06 02:03:12;;;;;;;7.38;3.83;;;;;12.10;96483.00;;;;8331172;28;20255;-69
2023/07/06 02:07:21;;;;;;;7.25;3.78;;;;;12.00;96488.00;;;;8310736;28;20229;-69
2023/07/06 02:11:27;;;;;;;12.10;3.83;;;;;11.90;96493.00;;;;8328783;28;20200;-69
2023/07/06 02:15:31;;;;;;;4.25;3.45;;;;;11.80;96502.00;;;;8307894;28;20199;-68
2023/07/06 02:19:35;;;;;;;7.43;3.60;;;;;11.80;96486.00;;;;8341932;28;20226;-69
2023/07/06 02:23:39;;;;;;;7.97;3.88;;;;;11.70;96480.00;;;;8328229;28;20678;-70
2023/07/06 02:27:44;;;;;;;5.15;3.33;;;;;11.60;96487.00;;;;8333627;28;20206;-70
2023/07/06 02:31:47;;;;;;;6.88;3.83;;;;;11.50;96487.00;;;;8324969;28;20829;-68
2023/07/06 02:35:50;;;;;;;9.02;3.63;;;;;11.40;96486.00;;;;8344100;28;20665;-69
2023/07/06 02:39:58;;;;;;;7.18;3.88;;;;;11.20;96474.00;;;;8346439;28;20690;-68
2023/07/06 02:44:02;;;;;;;6.38;3.90;;;;;11.10;96479.00;;;;8342679;28;20226;-68
2023/07/06 02:48:09;;;;;;;8.73;3.97;;;;;11.00;96485.00;;;;8338615;28;20234;-68
2023/07/06 02:52:12;;;;;;;5.80;4.07;;;;;10.80;96477.00;;;;8325107;28;20225;-69
2023/07/06 02:56:19;;;;;;;10.55;3.85;;;;;10.90;96472.00;;;;8339870;28;20245;-67
2023/07/06 03:00:24;;;;;;;7.57;3.40;;;;;10.90;96460.00;;;;8337938;28;20349;-72
2023/07/06 03:04:34;;;;;;;4.97;3.92;;;;;10.80;96472.00;;;;8323564;23;20273;-66
2023/07/06 03:08:40;;;;;;;8.37;4.37;;;;;10.60;96476.00;;;;8287247;28;20230;-68
2023/07/06 03:12:45;;;;;;;8.57;4.30;;;;;10.60;96471.00;;;;8289011;28;20277;-68
2023/07/06 03:16:48;;;;;;;5.40;3.77;;;;;10.60;96478.00;;;;8284336;28;20281;-68
2023/07/06 03:20:52;;;;;;;6.17;4.10;;;;;10.70;96483.00;;;;8306717;28;20731;-67
2023/07/06 03:24:56;;;;;;;8.93;3.83;;;;;10.70;96490.00;;;;8307865;28;21113;-68
2023/07/06 03:29:22;;;;;;;8.00;4.28;;;;;10.70;96492.00;;;;8317509;28;20626;-66
2023/07/06 03:33:28;;;;;;;7.30;4.07;;;;;10.70;96485.00;;;;8321984;28;20249;-66
2023/07/06 03:37:32;;;;;;;7.73;3.93;;;;;10.70;96493.00;;;;8314998;28;20198;-67
2023/07/06 03:41:38;;;;;;;6.93;4.27;;;;;10.80;96490.00;;;;8316500;28;20271;-66
2023/07/06 03:45:48;;;;;;;7.73;3.93;;;;;10.90;96496.00;;;;8286031;28;20225;-67
2023/07/06 03:49:56;;;;;;;5.32;3.78;;;;;11.00;96500.00;;;;8311670;28;20199;-67
2023/07/06 03:53:59;;;;;;;6.82;4.20;;;;;11.10;96502.00;;;;8317606;28;20301;-70
2023/07/06 03:58:02;;;;;;;6.63;4.10;;;;;11.20;96508.00;;;;8315366;28;20284;-67
2023/07/06 04:02:10;;;;;;;6.43;4.07;;;;;11.40;96511.00;;;;8304490;28;20229;-66
2023/07/06 04:06:16;;;;;;;12.00;4.33;;;;;11.60;96506.00;;;;8341751;28;20200;-68
2023/07/06 04:10:34;;;;;;;6.03;4.10;;;;;11.90;96513.00;;;;8316164;28;20206;-68
2023/07/06 04:14:44;;;;;;;8.98;3.97;;;;;12.20;96519.00;;;;8321502;28;20234;-68
2023/07/06 04:18:48;;;;;;;6.15;4.00;;;;;12.50;96522.00;;;;8312864;28;20303;-69
2023/07/06 04:22:57;;;;;;;4.95;3.40;;;;;12.80;96524.00;;;;8299945;28;20223;-67
2023/07/06 04:27:02;;;;;;;7.25;3.33;;;;;13.20;96522.00;;;;8315549;28;20200;-68
2023/07/06 04:31:10;;;;;;;5.57;3.47;;;;;13.50;96516.00;;;;8313467;28;20205;-68
2023/07/06 04:35:22;;;;;;;7.93;4.15;;;;;13.80;96518.00;;;;8319714;28;20582;-69
2023/07/06 04:39:29;;;;;;;4.60;3.20;;;;;14.20;96518.00;;;;8309467;28;20208;-68
2023/07/06 04:43:34;;;;;;;5.32;3.78;;;;;14.50;96520.00;;;;8315313;28;20312;-66
2023/07/06 04:47:39;;;;;;;8.73;3.88;;;;;14.70;96525.00;;;;8323538;28;20214;-66
2023/07/06 04:51:46;;;;;;;5.53;3.63;;;;;14.70;96530.00;;;;8326359;28;20205;-69
2023/07/06 04:55:51;;;;;;;8.45;3.75;;;;;14.90;96527.00;;;;8324092;28;20557;-67
2023/07/06 04:59:56;;;;;;;7.70;3.72;;;;;15.20;96534.00;;;;8299192;28;20256;-68
2023/07/06 05:03:59;;;;;;;10.13;3.22;;;;;15.50;96537.00;;;;8316680;28;20224;-66
2023/07/06 05:08:07;;;;;;;9.70;3.78;;;;;15.90;96534.00;;;;8320948;28;20207;-68
2023/07/06 05:12:11;;;;;;;12.00;4.47;;;;;16.10;96536.00;;;;8318123;28;20293;-68
2023/07/06 05:16:15;;;;;;;5.13;3.33;;;;;16.30;96537.00;;;;8309949;28;20625;-69
2023/07/06 05:20:20;;;;;;;3.85;3.50;;;;;16.40;96538.00;;;;8321206;28;20260;-70
2023/07/06 05:24:26;;;;;;;5.55;3.20;;;;;16.60;96533.00;;;;8312606;28;20227;-68
2023/07/06 05:28:30;;;;;;;5.43;3.00;;;;;16.80;96534.00;;;;8317787;28;20200;-67
2023/07/06 05:32:34;;;;;;;11.18;3.60;;;;;17.00;96539.00;;;;8308907;28;20204;-68
2023/07/06 05:36:39;;;;;;;5.47;3.40;;;;;17.30;96540.00;;;;8312689;28;20201;-67
2023/07/06 05:40:43;;;;;;;3.85;3.42;;;;;17.60;96544.00;;;;8318238;28;20213;-67
2023/07/06 05:44:50;;;;;;;5.28;3.13;;;;;18.10;96542.00;;;;8296777;28;20205;-67
2023/07/06 05:48:54;;;;;;;6.45;3.38;;;;;18.40;96554.00;;;;8318195;28;20209;-67
2023/07/06 05:52:58;;;;;;;6.00;3.17;;;;;18.50;96556.00;;;;8308206;28;20228;-66
2023/07/06 05:57:06;;;;;;;7.38;3.50;;;;;18.90;96554.00;;;;8322060;28;20202;-68
2023/07/06 06:01:09;;;;;;;13.10;4.50;;;;;19.50;96558.00;;;;8319982;28;20229;-68
2023/07/06 06:05:16;;;;;;;6.18;3.35;;;;;20.00;96561.00;;;;8322081;28;20193;-69
2023/07/06 06:09:20;;;;;;;6.60;3.75;;;;;20.40;96569.00;;;;8319009;28;20288;-67
2023/07/06 06:13:28;;;;;;;5.05;3.33;;;;;20.80;96565.00;;;;8316962;28;20235;-67
2023/07/06 06:17:31;;;;;;;11.05;4.00;;;;;21.40;96573.00;;;;8309868;28;20821;-67
2023/07/06 06:21:35;;;;;;;5.18;3.90;;;;;21.90;96573.00;;;;8321658;28;20714;-69
2023/07/06 06:25:41;;;;;;;5.97;3.20;;;;;22.20;96576.00;;;;8324777;28;20193;-69
2023/07/06 06:29:45;;;;;;;6.93;3.58;;;;;22.70;96580.00;;;;8320859;28;20288;-67
2023/07/06 06:33:49;;;;;;;8.02;3.63;;;;;23.40;96582.00;;;;8320187;28;20657;-68
2023/07/06 06:37:57;;;;;;;6.32;3.58;;;;;24.00;96581.00;;;;8319105;28;20208;-67
2023/07/06 06:42:02;;;;;;;7.30;3.45;;;;;24.40;96585.00;;;;8321143;28;20222;-68
2023/07/06 06:46:08;;;;;;;5.65;3.05;;;;;24.90;96591.00;;;;8319226;28;20194;-67
2023/07/06 06:50:16;;;;;;;3.92;3.38;;;;;25.50;96591.00;;;;8322672;28;20391;-66
2023/07/06 06:54:22;;;;;;;6.30;3.10;;;;;26.00;96597.00;;;;8323049;28;21005;-68
2023/07/06 06:58:29;;;;;;;5.60;3.25;;;;;26.40;96600.00;;;;8319330;28;20248;-68
2023/07/06 07:02:38;;;;;;;3.20;2.90;;;;;26.70;96602.00;;;;8306906;28;20602;-69
2023/07/06 07:06:42;;;;;;;6.20;3.03;;;;;26.90;96601.00;;;;8320118;28;20244;-67
2023/07/06 07:10:53;;;;;;;4.63;2.53;;;;;27.10;96597.00;;;;8317263;28;20197;-68
2023/07/06 07:14:56;;;;;;;3.33;3.03;;;;;27.50;96599.00;;;;8319107;28;20197;-67
2023/07/06 07:19:05;;;;;;;4.45;2.58;;;;;28.00;96604.00;;;;8321567;28;20289;-67
2023/07/06 07:23:10;;;;;;;6.20;2.67;;;;;28.40;96602.00;;;;8322177;28;20721;-66
2023/07/06 07:27:14;;;;;;;4.10;2.85;;;;;28.80;96603.00;;;;8318018;28;22015;-70
2023/07/06 07:31:21;;;;;;;3.35;2.80;;;;;28.90;96604.00;;;;8314929;28;20202;-68
2023/07/06 07:35:29;;;;;;;6.30;2.30;;;;;28.90;96609.00;;;;8316867;28;20617;-67
2023/07/06 07:39:33;;;;;;;2.65;2.35;;;;;29.20;96605.00;;;;8318972;28;20536;-69
2023/07/06 07:43:41;;;;;;;2.83;2.45;;;;;29.40;96604.00;;;;8321909;28;20229;-67
2023/07/06 07:47:56;;;;;;;3.72;2.47;;;;;29.60;96607.00;;;;8316570;28;20201;-67
2023/07/06 07:52:03;;;;;;;4.25;2.20;;;;;29.60;96612.00;;;;8318060;28;20284;-68
2023/07/06 07:56:09;;;;;;;2.30;2.10;;;;;29.30;96613.00;;;;8312849;28;20201;-66
2023/07/06 08:00:18;;;;;;;5.00;2.72;;;;;28.60;96610.00;;;;8313839;28;20201;-68
2023/07/06 08:04:24;;;;;;;3.08;2.42;;;;;27.70;96620.00;;;;8317205;28;20233;-69
2023/07/06 08:08:32;;;;;;;5.00;2.90;;;;;27.50;96613.00;;;;8320964;28;20207;-69
2023/07/06 08:12:36;;;;;;;4.40;3.13;;;;;27.60;96611.00;;;;8316734;28;20197;-68
2023/07/06 08:16:40;;;;;;;3.97;2.65;;;;;27.80;96605.00;;;;8318270;28;20702;-70
2023/07/06 08:20:44;;;;;;;6.55;2.53;;;;;28.20;96611.00;;;;8315840;28;20213;-69
2023/07/06 08:25:12;;;;;;;3.58;2.50;;;;;28.60;96605.00;;;;8303678;28;20193;-72
2023/07/06 08:29:15;;;;;;;8.50;2.50;;;;;28.10;96609.00;;;;8314583;28;20197;-69
2023/07/06 08:33:20;;;;;;;3.47;2.30;;;;;28.60;96611.00;;;;8318675;28;20202;-67
2023/07/06 08:37:25;;;;;;;3.75;2.75;;;;;29.70;96601.00;;;;8313209;28;20244;-68
2023/07/06 08:41:37;;;;;;;6.32;2.55;;;;;30.60;96601.00;;;;8319907;28;20231;-69
2023/07/06 08:45:52;;;;;;;7.18;2.65;;;;;31.40;96598.00;;;;8324818;28;20244;-69
2023/07/06 08:50:02;;;;;;;2.72;2.50;;;;;31.50;96597.00;;;;8316622;28;20200;-67
2023/07/06 08:54:14;;;;;;;3.80;2.63;;;;;31.80;96597.00;;;;8316865;28;20197;-68
2023/07/06 08:58:25;;;;;;;6.53;2.63;;;;;31.80;96593.00;;;;8291637;28;20193;-69
2023/07/06 09:02:32;;;;;;;6.88;2.58;;;;;32.20;96598.00;;;;8308197;28;20233;-68
2023/07/06 09:06:41;;;;;;;3.65;2.70;;;;;32.30;96587.00;;;;8308480;28;21032;-69
2023/07/06 09:10:46;;;;;;;2.97;2.63;;;;;32.50;96588.00;;;;8310132;28;20204;-70
2023/07/06 09:14:53;;;;;;;5.75;3.00;;;;;32.50;96588.00;;;;8308728;28;20752;-71
2023/07/06 09:18:56;;;;;;;3.33;2.70;;;;;32.80;96591.00;;;;8311522;28;20259;-68
2023/07/06 09:23:05;;;;;;;3.35;2.80;;;;;33.10;96593.00;;;;8315424;28;20251;-69
2023/07/06 09:27:15;;;;;;;4.05;2.60;;;;;33.80;96594.00;;;;8311174;28;20204;-69
2023/07/06 09:31:22;;;;;;;2.75;2.50;;;;;34.20;96592.00;;;;8312409;28;20261;-71
2023/07/06 09:35:30;;;;;;;2.47;2.28;;;;;34.20;96592.00;;;;8318362;28;20215;-75
2023/07/06 09:39:33;;;;;;;2.97;2.60;;;;;34.40;96593.00;;;;8305988;28;20244;-69
2023/07/06 09:43:39;;;;;;;4.03;2.75;;;;;34.50;96587.00;;;;8308905;28;20225;-70
2023/07/06 09:47:54;;;;;;;6.55;2.85;;;;;35.10;96587.00;;;;8310192;28;20209;-70
2023/07/06 09:52:06;;;;;;;3.15;2.60;;;;;36.00;96589.00;;;;8312638;28;20205;-70
2023/07/06 09:56:13;;;;;;;2.67;2.40;;;;;36.30;96582.00;;;;8311622;28;20202;-72
2023/07/06 10:00:18;;;;;;;3.40;2.58;;;;;35.60;96594.00;;;;8312162;28;20197;-69
2023/07/06 10:04:54;;;;;;;3.70;2.50;;;;;35.50;96589.00;;;;8311038;28;20229;-72
2023/07/06 10:09:09;;;;;;;2.70;2.50;;;;;35.70;96586.00;;;;8277776;28;20198;-68
2023/07/06 10:13:26;;;;;;;2.55;2.35;;;;;33.90;96587.00;;;;8312479;28;20206;-71
2023/07/06 10:17:35;;;;;;;2.60;2.40;;;;;32.50;96586.00;;;;8313017;28;20217;-71
2023/07/06 10:21:45;;;;;;;8.15;3.38;;;;;33.90;96582.00;;;;8315890;28;20570;-71
2023/07/06 10:26:00;;;;;;;3.63;2.30;;;;;35.40;96582.00;;;;8317375;28;20248;-68
2023/07/06 10:30:08;;;;;;;2.38;2.17;;;;;36.50;96582.00;;;;8314368;28;20229;-71
2023/07/06 10:34:20;;;;;;;5.57;2.42;;;;;36.40;96585.00;;;;8313669;28;20639;-72
2023/07/06 10:38:26;;;;;;;5.32;2.70;;;;;35.90;96588.00;;;;8317389;28;20293;-73
2023/07/06 10:42:31;;;;;;;4.10;2.72;;;;;35.90;96587.00;;;;8317812;28;20239;-72
2023/07/06 10:46:40;;;;;;;5.30;2.13;;;;;35.50;96590.00;;;;8320135;28;20248;-71
2023/07/06 10:50:50;;;;;;;4.50;2.80;;;;;36.20;96591.00;;;;8322745;28;20244;-71
2023/07/06 10:54:58;;;;;;;3.65;2.58;;;;;36.80;96574.00;;;;8323498;28;20291;-71
2023/07/06 10:59:02;;;;;;;3.25;2.40;;;;;37.00;96580.00;;;;8320911;28;20293;-72
2023/07/06 11:03:07;;;;;;;2.80;2.60;;;;;37.10;96575.00;;;;8323054;28;20335;-67
2023/07/06 11:07:13;;;;;;;2.70;2.47;;;;;37.20;96581.00;;;;8315028;28;20701;-69
2023/07/06 11:11:25;;;;;;;3.92;2.70;;;;;37.60;96584.00;;;;8319724;28;20216;-69
2023/07/06 11:15:39;;;;;;;4.10;2.63;;;;;37.40;96579.00;;;;8318613;28;20574;-72
2023/07/06 11:19:48;;;;;;;4.80;2.92;;;;;37.00;96577.00;;;;8321216;28;20672;-71
2023/07/06 11:23:55;;;;;;;3.17;2.35;;;;;37.40;96577.00;;;;8327138;28;20212;-73
2023/07/06 11:28:05;;;;;;;4.20;2.53;;;;;37.80;96583.00;;;;8320993;28;20201;-73
2023/07/06 11:32:19;;;;;;;3.03;2.60;;;;;38.00;96571.00;;;;8323066;28;20212;-73
2023/07/06 11:36:32;;;;;;;2.63;2.40;;;;;38.30;96580.00;;;;8322381;28;20197;-72
2023/07/06 11:40:45;;;;;;;3.10;2.50;;;;;38.50;96578.00;;;;8321301;28;20666;-69
2023/07/06 11:44:52;;;;;;;2.72;2.53;;;;;38.50;96578.00;;;;8316660;28;20336;-69
2023/07/06 11:49:15;;;;;;;2.60;2.30;;;;;36.60;96580.00;;;;8307519;28;20630;-70
2023/07/06 11:53:42;;;;;;;3.33;2.80;;;;;35.00;96578.00;;;;8313420;28;20232;-72
2023/07/06 11:58:04;;;;;;;5.22;2.55;;;;;34.80;96581.00;;;;8313608;28;20204;-71
2023/07/06 12:02:15;;;;;;;3.97;2.55;;;;;35.30;96569.00;;;;8311295;28;20248;-71
2023/07/06 12:06:22;;;;;;;3.25;2.95;;;;;36.10;96577.00;;;;8318051;28;20221;-68
2023/07/06 12:10:26;;;;;;;3.05;2.67;;;;;36.60;96577.00;;;;8311126;28;20812;-71
2023/07/06 12:14:32;;;;;;;2.72;2.30;;;;;35.30;96571.00;;;;8308206;28;20209;-68
2023/07/06 12:18:40;;;;;;;2.60;2.40;;;;;34.10;96561.00;;;;8313740;28;20267;-71
2023/07/06 12:22:57;;;;;;;3.55;2.38;;;;;33.20;96558.00;;;;8298066;28;20202;-74
2023/07/06 12:27:03;;;;;;;4.78;2.67;;;;;33.60;96570.00;;;;8313359;28;20201;-69
2023/07/06 12:31:09;;;;;;;4.40;2.60;;;;;34.60;96563.00;;;;8316423;28;20232;-70
2023/07/06 12:35:21;;;;;;;3.70;2.83;;;;;33.50;96569.00;;;;8316783;28;20198;-69
2023/07/06 12:39:25;;;;;;;3.63;2.65;;;;;32.70;96566.00;;;;8314207;28;20193;-68
2023/07/06 12:43:32;;;;;;;3.78;2.55;;;;;32.20;96560.00;;;;8313491;28;20261;-69
2023/07/06 12:47:38;;;;;;;4.03;2.88;;;;;31.80;96558.00;;;;8308229;28;20247;-70
2023/07/06 12:51:54;;;;;;;4.20;3.03;;;;;31.70;96560.00;;;;8315554;28;20560;-69
2023/07/06 12:56:01;;;;;;;3.85;2.88;;;;;32.40;96552.00;;;;8311241;28;20920;-69
2023/07/06 13:00:14;;;;;;;4.07;2.83;;;;;32.40;96539.00;;;;8310973;28;20869;-69
2023/07/06 13:04:19;;;;;;;3.15;2.85;;;;;32.10;96543.00;;;;8309392;28;20239;-70
2023/07/06 13:08:25;;;;;;;3.80;2.88;;;;;32.40;96537.00;;;;8312575;28;20217;-70
2023/07/06 13:12:34;;;;;;;3.80;2.95;;;;;32.90;96525.00;;;;8307576;28;20308;-72
2023/07/06 13:16:44;;;;;;;3.33;2.58;;;;;33.20;96525.00;;;;8308763;28;20205;-69
2023/07/06 13:20:50;;;;;;;3.28;2.65;;;;;33.90;96524.00;;;;8316272;28;20208;-68
2023/07/06 13:24:57;;;;;;;5.13;2.78;;;;;34.70;96517.00;;;;8307864;28;20696;-68
2023/07/06 13:29:06;;;;;;;6.55;2.88;;;;;35.00;96521.00;;;;8306636;28;20201;-67
2023/07/06 13:33:12;;;;;;;2.67;2.47;;;;;34.70;96520.00;;;;8307757;28;20289;-68
2023/07/06 13:37:26;;;;;;;4.05;3.00;;;;;34.40;96526.00;;;;8319353;28;20205;-67
2023/07/06 13:41:37;;;;;;;4.28;2.95;;;;;34.90;96517.00;;;;8326963;28;20197;-69
2023/07/06 13:45:42;;;;;;;5.28;2.50;;;;;35.60;96513.00;;;;8292918;28;20702;-65
2023/07/06 13:49:47;;;;;;;4.00;2.80;;;;;36.30;96508.00;;;;8284168;28;20562;-64
2023/07/06 13:53:54;;;;;;;7.05;2.30;;;;;37.00;96512.00;;;;8311471;28;20197;-65
2023/07/06 13:57:59;;;;;;;5.47;2.45;;;;;36.50;96517.00;;;;8311191;28;20201;-65
2023/07/06 14:02:03;;;;;;;2.80;2.58;;;;;35.70;96513.00;;;;8291041;28;20311;-65
2023/07/06 14:06:07;;;;;;;4.38;2.90;;;;;35.80;96522.00;;;;8292134;28;20844;-64
2023/07/06 14:10:13;;;;;;;3.40;2.80;;;;;36.10;96518.00;;;;8306776;28;20233;-66
2023/07/06 14:14:17;;;;;;;3.15;2.45;;;;;36.50;96511.00;;;;8318508;28;20197;-65
2023/07/06 14:18:23;;;;;;;4.10;2.58;;;;;36.90;96508.00;;;;8312528;28;20270;-66
2023/07/06 14:22:26;;;;;;;2.50;2.30;;;;;36.90;96514.00;;;;8311917;28;20210;-65
2023/07/06 14:26:29;;;;;;;2.78;2.53;;;;;36.90;96514.00;;;;8318136;28;20233;-68
2023/07/06 14:30:35;;;;;;;4.22;2.30;;;;;37.20;96511.00;;;;8309167;28;20208;-66
2023/07/06 14:34:42;;;;;;;2.97;2.30;;;;;37.50;96518.00;;;;8307810;28;20221;-66
2023/07/06 14:38:45;;;;;;;4.20;2.40;;;;;37.60;96510.00;;;;8313292;28;20202;-66
2023/07/06 14:42:56;;;;;;;2.20;2.10;;;;;37.80;96508.00;;;;8316138;28;20709;-65
2023/07/06 14:47:00;;;;;;;2.60;2.40;;;;;38.00;96511.00;;;;8305486;28;20316;-65
2023/07/06 14:51:09;;;;;;;2.50;2.30;;;;;38.00;96502.00;;;;8314736;28;20204;-66
2023/07/06 14:55:14;;;;;;;2.60;2.40;;;;;37.70;96509.00;;;;8316674;28;20198;-65
2023/07/06 14:59:18;;;;;;;3.38;2.25;;;;;37.20;96509.00;;;;8321594;28;20193;-65
2023/07/06 15:03:25;;;;;;;2.90;2.67;;;;;37.40;96505.00;;;;8317241;28;20324;-64
2023/07/06 15:07:29;;;;;;;2.65;2.45;;;;;37.80;96505.00;;;;8309124;28;20205;-66
2023/07/06 15:11:33;;;;;;;4.75;2.80;;;;;37.50;96506.00;;;;8326316;28;20220;-65
2023/07/06 15:15:37;;;;;;;2.50;2.38;;;;;37.40;96506.00;;;;8320995;28;20691;-66
2023/07/06 15:19:46;;;;;;;4.63;2.60;;;;;37.40;96503.00;;;;8330665;28;20252;-64
2023/07/06 15:23:52;;;;;;;2.88;2.60;;;;;37.10;96507.00;;;;8330391;28;20252;-64
2023/07/06 15:27:56;;;;;;;2.83;2.53;;;;;36.80;96504.00;;;;8320414;28;20197;-64
2023/07/06 15:32:05;;;;;;;3.20;2.72;;;;;36.70;96502.00;;;;8322878;28;20199;-65
2023/07/06 15:36:10;;;;;;;3.30;2.88;;;;;35.80;96494.00;;;;8323272;28;20661;-64
2023/07/06 15:40:13;;;;;;;2.95;2.40;;;;;34.70;96493.00;;;;8331748;28;20709;-64
2023/07/06 15:44:17;;;;;;;3.80;3.05;;;;;34.10;96492.00;;;;8316207;28;20229;-64
2023/07/06 22:17:32;;;;;;;6.68;3.80;;;;;15.10;96668.00;;;;8192067;29;20224;-96
2023/07/06 22:22:01;;;;;;;4.45;3.70;;;;;15.00;96673.00;;;;8194904;28;20603;-96
2023/07/06 22:26:22;;;;;;;7.05;4.45;;;;;15.00;96674.00;;;;8192541;28;20232;-96
2023/07/06 22:43:33;;;;;;;9.38;4.03;;;;;14.90;96672.00;;;;8199375;28;20641;-96
